createdAt,value
2022-08-20T00:00:20.677Z,100716.38
2022-08-20T00:02:50.671Z,100718.03
2022-08-20T00:05:23.422Z,100715.56
2022-08-20T00:07:51.208Z,100713.13
2022-08-20T00:10:19.087Z,100713.41
2022-08-20T00:12:48.515Z,100719.44
2022-08-20T00:15:21.613Z,100711.44
2022-08-20T00:17:50.475Z,100714.22
2022-08-20T00:20:20.216Z,100715.31
2022-08-20T00:22:48.306Z,100718.06
2022-08-20T00:25:16.533Z,100717.25
2022-08-20T00:27:44.409Z,100721.69
2022-08-20T00:30:13.930Z,100714.22
2022-08-20T00:32:48.165Z,100716.75
2022-08-20T00:35:16.661Z,100716.47
2022-08-20T00:37:44.412Z,100717.03
2022-08-20T00:40:22.220Z,100721.72
2022-08-20T00:42:53.938Z,100724.47
2022-08-20T00:45:22.275Z,100721.47
2022-08-20T00:47:51.753Z,100722.84
2022-08-20T00:50:22.673Z,100725.59
2022-08-20T00:52:52.568Z,100731.13
2022-08-20T00:55:23.511Z,100728.88
2022-08-20T00:57:59.968Z,100728.88
2022-08-20T05:01:12.447Z,100809.25
2022-08-20T05:03:40.622Z,100806.75
2022-08-20T05:06:10.139Z,100799.59
2022-08-20T05:08:38.482Z,100791.09
2022-08-20T05:11:33.773Z,100797.16
2022-08-20T05:13:54.769Z,100796.03
2022-08-20T05:16:24.582Z,100805.88
2022-08-20T05:18:53.101Z,100798.13
2022-08-20T05:21:21.085Z,100798.66
2022-08-20T05:23:49.193Z,100812.41
2022-08-20T05:26:20.012Z,100811.66
2022-08-20T05:28:54.323Z,100822.69
2022-08-20T05:31:31.667Z,100830.13
2022-08-20T05:34:01.860Z,100821.09
2022-08-20T05:36:29.861Z,100821.34
2022-08-20T05:38:57.496Z,100830.06
2022-08-20T05:41:28.727Z,100835.88
2022-08-20T05:43:57.888Z,100833.47
2022-08-20T05:46:25.639Z,100842.53
2022-08-20T05:48:54.554Z,100852.66
2022-08-20T05:51:22.161Z,100853.50
2022-08-20T05:53:49.828Z,100862.94
2022-08-20T05:56:17.524Z,100863.00
2022-08-20T05:58:45.132Z,100863.47
2022-08-20T06:01:15.087Z,100869.28
2022-08-20T06:04:00.363Z,100862.94
2022-08-20T06:06:44.947Z,100862.34
2022-08-20T06:09:14.892Z,100862.63
2022-08-20T06:11:42.707Z,100854.41
2022-08-20T06:14:10.348Z,100850.88
2022-08-20T06:16:38.048Z,100847.88
2022-08-20T06:19:11.354Z,100844.59
2022-08-20T06:21:41.356Z,100846.31
2022-08-20T06:24:09.509Z,100848.75
2022-08-20T06:26:37.538Z,100844.09
2022-08-20T06:29:07.567Z,100847.69
2022-08-20T06:31:39.789Z,100851.78
2022-08-20T06:34:09.908Z,100851.00
2022-08-20T06:36:37.517Z,100849.94
2022-08-20T06:39:06.543Z,100851.06
2022-08-20T06:41:37.262Z,100848.06
2022-08-20T06:44:05.363Z,100848.38
2022-08-20T06:46:33.236Z,100851.19
2022-08-20T06:49:00.864Z,100848.44
2022-08-20T06:51:29.345Z,100847.63
2022-08-20T06:53:57.074Z,100839.69
2022-08-20T06:56:26.209Z,100851.53
2022-08-20T06:58:53.812Z,100846.59
2022-08-20T07:01:22.146Z,100848.53
2022-08-20T07:03:55.290Z,100849.94
2022-08-20T07:06:25.247Z,100845.78
2022-08-20T07:08:53.012Z,100848.31
2022-08-20T07:11:26.655Z,100840.06
2022-08-20T07:13:57.900Z,100841.72
2022-08-20T07:16:26.389Z,100849.44
2022-08-20T07:18:58.187Z,100843.91
2022-08-20T07:21:25.817Z,100856.03
2022-08-20T07:23:53.423Z,100862.06
2022-08-20T07:26:21.031Z,100860.41
2022-08-20T07:28:48.820Z,100861.50
2022-08-20T07:31:35.574Z,100863.72
2022-08-20T07:34:03.482Z,100866.00
2022-08-20T07:36:31.740Z,100863.78
2022-08-20T07:38:59.801Z,100861.31
2022-08-20T07:41:34.041Z,100869.91
2022-08-20T07:44:01.627Z,100875.38
2022-08-20T07:46:31.671Z,100878.44
2022-08-20T07:49:00.046Z,100874.31
2022-08-20T07:51:28.594Z,100874.00
2022-08-20T07:53:58.494Z,100866.84
2022-08-20T07:56:28.282Z,100869.06
2022-08-20T07:58:59.208Z,100875.97
2022-08-20T08:01:31.636Z,100878.72
2022-08-20T08:04:00.794Z,100883.41
2022-08-20T08:06:31.321Z,100894.72
2022-08-20T08:09:04.047Z,100881.75
2022-08-20T08:11:34.393Z,100901.91
2022-08-20T08:14:03.778Z,100902.41
2022-08-20T08:16:34.360Z,100898.25
2022-08-20T08:19:02.432Z,100900.78
2022-08-20T08:21:31.857Z,100906.59
2022-08-20T08:23:59.825Z,100906.88
2022-08-20T08:26:28.965Z,100907.41
2022-08-20T08:28:58.043Z,100909.63
2022-08-20T08:31:26.170Z,100905.50
2022-08-20T08:33:55.462Z,100906.88
2022-08-20T08:36:23.227Z,100907.41
2022-08-20T08:38:50.925Z,100915.16
2022-08-20T08:41:21.095Z,100922.59
2022-08-20T08:43:53.098Z,100918.47
2022-08-20T08:46:25.121Z,100918.47
2022-08-20T08:48:57.057Z,100920.13
2022-08-20T08:51:31.008Z,100928.13
2022-08-20T08:54:03.443Z,100933.66
2022-08-20T08:56:33.880Z,100927.31
2022-08-20T08:59:04.259Z,100941.66
2022-08-20T09:01:54.027Z,100924.28
2022-08-20T09:04:31.524Z,100919.88
2022-08-20T09:07:00.312Z,100933.13
2022-08-20T09:09:32.355Z,100926.75
2022-08-20T09:12:06.441Z,100934.22
2022-08-20T09:14:34.589Z,100932.25
2022-08-20T09:17:02.500Z,100935.31
2022-08-20T09:19:31.868Z,100934.22
2022-08-20T09:22:00.234Z,100941.66
2022-08-20T09:24:27.830Z,100948.00
2022-08-20T09:26:55.518Z,100940.59
2022-08-20T09:29:23.146Z,100946.09
2022-08-20T09:31:51.414Z,100940.03
2022-08-20T09:34:20.272Z,100941.13
2022-08-20T09:36:49.263Z,100945.00
2022-08-20T09:39:17.158Z,100940.00
2022-08-20T09:41:48.362Z,100935.03
2022-08-20T09:44:17.614Z,100930.59
2022-08-20T09:46:45.171Z,100933.94
2022-08-20T09:49:12.737Z,100931.44
2022-08-20T09:51:40.426Z,100924.50
2022-08-20T09:54:09.597Z,100933.94
2022-08-20T09:56:37.570Z,100930.31
2022-08-20T09:59:05.449Z,100925.03
2022-08-20T10:01:34.090Z,100920.31
2022-08-20T10:04:01.872Z,100917.28
2022-08-20T10:06:30.916Z,100926.63
2022-08-20T10:09:01.075Z,100925.56
2022-08-20T10:11:30.107Z,100923.91
2022-08-20T10:13:57.880Z,100933.06
2022-08-20T10:16:26.258Z,100928.59
2022-08-20T10:18:53.988Z,100925.00
2022-08-20T10:21:21.687Z,100920.03
2022-08-20T10:23:50.008Z,100926.94
2022-08-20T10:26:17.678Z,100927.75
2022-08-20T10:28:46.843Z,100926.94
2022-08-20T10:31:15.755Z,100929.41
2022-08-20T10:33:43.638Z,100928.03
2022-08-20T10:36:15.310Z,100931.66
2022-08-20T10:38:43.258Z,100928.06
2022-08-20T10:41:11.747Z,100932.22
2022-08-20T10:43:39.430Z,100924.50
2022-08-20T10:46:09.072Z,100929.22
2022-08-20T10:48:36.702Z,100938.63
2022-08-20T10:51:04.716Z,100947.75
2022-08-20T10:53:33.021Z,100954.38
2022-08-20T10:56:00.728Z,100955.19
2022-08-20T10:58:39.322Z,100956.59
2022-08-20T11:01:09.109Z,100957.44
2022-08-20T11:03:37.080Z,100952.19
2022-08-20T11:06:05.149Z,100958.25
2022-08-20T11:08:34.231Z,100958.53
2022-08-20T11:11:04.909Z,100965.44
2022-08-20T11:13:33.016Z,100962.66
2022-08-20T11:16:02.433Z,100969.84
2022-08-20T11:18:32.895Z,100964.63
2022-08-20T11:21:01.367Z,100963.22
2022-08-20T11:23:29.372Z,100963.22
2022-08-20T11:25:58.385Z,100970.13
2022-08-20T11:28:31.917Z,100973.19
2022-08-20T11:31:02.120Z,100970.41
2022-08-20T11:33:31.384Z,100970.41
2022-08-20T11:35:59.014Z,100965.47
2022-08-20T11:38:27.014Z,100970.41
2022-08-20T11:40:54.648Z,100966.56
2022-08-20T11:43:22.229Z,100970.41
2022-08-20T11:45:53.695Z,100962.09
2022-08-20T11:48:21.852Z,100969.00
2022-08-20T11:50:50.984Z,100967.06
2022-08-20T11:53:19.110Z,100971.47
2022-08-20T11:55:47.907Z,100966.56
2022-08-20T11:58:17.846Z,100971.47
2022-08-20T12:00:47.609Z,100968.75
2022-08-20T12:03:15.623Z,100967.66
2022-08-20T12:05:45.664Z,100972.06
2022-08-20T12:08:26.658Z,100969.00
2022-08-20T12:10:55.496Z,100972.06
2022-08-20T12:13:23.679Z,100970.94
2022-08-20T12:15:59.805Z,100964.53
2022-08-20T12:18:27.774Z,100961.22
2022-08-20T12:20:56.784Z,100962.59
2022-08-20T12:23:25.958Z,100962.03
2022-08-20T12:25:53.812Z,100972.28
2022-08-20T12:28:25.934Z,100958.44
2022-08-20T12:30:53.710Z,100968.63
2022-08-20T12:33:33.105Z,100958.63
2022-08-20T12:36:11.273Z,100958.59
2022-08-20T12:38:40.286Z,100957.19
2022-08-20T12:41:07.872Z,100952.47
2022-08-20T12:43:35.478Z,100958.75
2022-08-20T12:46:03.049Z,100957.88
2022-08-20T12:48:30.780Z,100953.19
2022-08-20T12:50:58.475Z,100959.78
2022-08-20T12:53:26.174Z,100956.13
2022-08-20T12:55:55.200Z,100948.50
2022-08-20T12:58:22.801Z,100947.91
2022-08-20T13:00:51.388Z,100944.78
2022-08-20T13:03:19.828Z,100944.44
2022-08-20T13:05:48.615Z,100947.16
2022-08-20T13:08:17.841Z,100945.94
2022-08-20T13:10:46.230Z,100935.34
2022-08-20T13:13:17.438Z,100940.97
2022-08-20T13:15:48.908Z,100938.66
2022-08-20T13:18:16.700Z,100945.72
2022-08-20T13:20:44.717Z,100927.91
2022-08-20T14:07:34.638Z,100911.66
2022-08-20T14:10:04.827Z,100903.00
2022-08-20T14:12:32.411Z,100922.03
2022-08-20T14:15:00.261Z,100918.59
2022-08-20T14:17:33.436Z,100919.78
2022-08-20T14:20:04.917Z,100919.66
2022-08-20T14:22:35.105Z,100925.44
2022-08-20T14:25:07.978Z,100920.38
2022-08-20T14:27:36.073Z,100927.69
2022-08-20T14:30:05.834Z,100919.13
2022-08-20T14:32:33.794Z,100923.75
2022-08-20T14:35:02.127Z,100927.88
2022-08-20T14:37:32.925Z,100927.94
2022-08-20T14:40:03.388Z,100917.06
2022-08-20T14:42:31.513Z,100917.03
2022-08-20T14:45:02.082Z,100916.25
2022-08-20T14:47:32.327Z,100921.38
2022-08-20T14:50:06.474Z,100908.66
2022-08-20T14:52:36.567Z,100911.66
2022-08-20T14:55:07.455Z,100900.41
2022-08-20T14:57:36.070Z,100906.28
2022-08-20T15:00:06.183Z,100905.91
2022-08-20T15:02:36.091Z,100917.16
2022-08-20T15:05:04.057Z,100903.19
2022-08-20T15:07:38.989Z,100906.69
2022-08-20T15:10:11.253Z,100910.53
2022-08-20T15:12:38.893Z,100907.38
2022-08-20T15:15:14.122Z,100909.75
2022-08-20T15:17:46.220Z,100910.66
2022-08-20T15:20:20.750Z,100911.16
2022-08-20T15:22:51.009Z,100908.22
2022-08-20T15:25:22.613Z,100911.50
2022-08-20T15:27:50.460Z,100916.03
2022-08-20T15:30:22.613Z,100916.41
2022-08-20T15:48:51.264Z,100911.06
2022-08-20T15:51:29.581Z,100913.53
2022-08-20T15:54:01.750Z,100910.75
2022-08-20T15:56:48.276Z,100913.53
2022-08-20T15:59:26.466Z,100924.16
2022-08-20T16:02:03.674Z,100916.34
2022-08-20T16:05:02.081Z,100921.91
2022-08-20T16:07:36.459Z,100915.53
2022-08-20T16:10:07.473Z,100916.72
2022-08-20T16:12:38.929Z,100921.84
2022-08-20T16:15:10.673Z,100920.84
2022-08-20T16:17:42.258Z,100924.25
2022-08-20T16:20:17.581Z,100925.94
2022-08-20T16:22:47.772Z,100929.28
2022-08-20T16:25:17.289Z,100923.22
2022-08-20T16:27:56.043Z,100925.72
2022-08-20T16:30:33.320Z,100926.53
2022-08-20T16:33:07.179Z,100929.91
2022-08-20T16:35:42.689Z,100932.66
2022-08-20T16:38:21.072Z,100930.50
2022-08-20T16:40:52.537Z,100924.94
2022-08-20T16:43:24.150Z,100926.66
2022-08-20T16:45:56.409Z,100932.22
2022-08-20T16:48:31.280Z,100933.91
2022-08-20T16:51:04.302Z,100932.59
2022-08-20T16:53:33.188Z,100931.22
2022-08-20T16:56:00.846Z,100933.44
2022-08-20T16:58:28.480Z,100935.41
2022-08-20T17:01:08.921Z,100930.66
2022-08-20T17:03:40.330Z,100935.41
2022-08-20T17:06:20.328Z,100932.66
2022-08-20T17:08:50.480Z,100931.03
2022-08-20T17:11:25.144Z,100936.56
2022-08-20T17:14:04.868Z,100936.03
2022-08-20T17:16:35.262Z,100937.66
2022-08-20T17:19:10.909Z,100942.66
2022-08-20T17:21:41.224Z,100941.78
2022-08-20T17:24:18.345Z,100944.78
2022-08-20T17:26:49.197Z,100938.38
2022-08-20T17:29:20.139Z,100941.38
2022-08-20T17:31:51.197Z,100939.16
2022-08-20T17:34:22.353Z,100949.66
2022-08-20T17:36:55.298Z,100943.84
2022-08-20T17:39:25.681Z,100946.91
2022-08-20T17:41:55.948Z,100946.59
2022-08-20T17:44:26.264Z,100949.91
2022-08-20T17:46:54.981Z,100948.00
2022-08-20T17:49:33.686Z,100957.41
2022-08-20T17:52:08.651Z,100965.47
2022-08-20T17:54:41.269Z,100963.53
2022-08-20T17:57:14.464Z,100965.72
2022-08-20T18:00:00.622Z,100971.63
2022-08-20T18:02:30.536Z,100974.34
2022-08-20T18:04:58.287Z,100976.31
2022-08-20T18:07:31.652Z,100970.19
2022-08-20T18:10:08.261Z,100969.66
2022-08-20T18:12:40.006Z,100974.34
2022-08-20T18:15:16.152Z,100978.25
2022-08-20T18:18:02.399Z,100979.69
2022-08-20T18:20:50.059Z,100979.75
2022-08-20T18:23:22.596Z,100986.09
2022-08-20T18:25:55.601Z,100986.16
2022-08-20T18:28:28.685Z,100995.00
2022-08-20T18:31:00.676Z,100998.88
2022-08-20T18:33:31.712Z,100998.88
2022-08-20T18:36:07.032Z,100999.16
2022-08-20T18:38:38.454Z,101001.41
2022-08-20T18:41:08.331Z,100999.75
2022-08-20T18:43:36.706Z,101005.59
2022-08-20T18:46:19.813Z,101006.19
2022-08-20T18:48:53.757Z,101001.25
2022-08-20T18:51:29.987Z,101004.03
2022-08-20T18:53:59.077Z,101003.47
2022-08-20T18:56:36.775Z,101004.88
2022-08-20T18:59:10.290Z,101012.63
2022-08-20T19:01:39.447Z,101007.91
2022-08-20T19:04:18.192Z,101020.66
2022-08-20T19:06:56.879Z,101019.28
2022-08-20T19:09:43.856Z,101017.91
2022-08-20T19:12:31.919Z,101015.13
2022-08-20T19:15:04.114Z,101028.41
2022-08-20T19:17:44.741Z,101023.69
2022-08-20T19:20:15.813Z,101021.22
2022-08-20T19:22:45.030Z,101022.88
2022-08-20T19:25:25.463Z,101020.94
2022-08-20T19:27:53.559Z,101019.56
2022-08-20T19:30:37.774Z,101017.94
2022-08-20T19:33:06.433Z,101020.69
2022-08-20T19:35:35.151Z,101025.94
2022-08-20T19:38:03.099Z,101025.09
2022-08-20T19:40:39.333Z,101024.56
2022-08-20T19:43:14.787Z,101029.78
2022-08-20T19:45:46.589Z,101028.41
2022-08-20T19:48:34.632Z,101036.16
2022-08-20T19:51:09.520Z,101031.47
2022-08-20T19:53:45.573Z,101031.16
2022-08-20T19:56:17.971Z,101033.97
2022-08-20T19:58:58.026Z,101041.97
2022-08-20T20:01:25.658Z,101038.09
2022-08-20T20:03:59.427Z,101036.16
2022-08-20T20:06:28.679Z,101042.22
2022-08-20T20:09:00.669Z,101036.13
2022-08-20T20:11:35.184Z,101045.78
2022-08-20T20:14:05.888Z,101049.41
2022-08-20T20:16:34.370Z,101047.13
2022-08-20T20:19:25.205Z,101052.41
2022-08-20T20:22:01.714Z,101047.97
2022-08-20T20:24:40.181Z,101048.50
2022-08-20T20:27:20.007Z,101052.06
2022-08-20T20:29:51.744Z,101048.75
2022-08-20T20:32:24.069Z,101049.84
2022-08-20T20:34:56.712Z,101056.41
2022-08-20T20:37:49.677Z,101049.53
2022-08-20T20:40:25.502Z,101063.34
2022-08-20T20:43:03.986Z,101057.78
2022-08-20T20:45:35.370Z,101058.34
2022-08-20T20:48:19.148Z,101060.00
2022-08-20T20:50:48.142Z,101058.91
2022-08-20T20:53:35.071Z,101058.66
2022-08-20T20:56:28.313Z,101062.25
2022-08-20T20:59:02.390Z,101068.88
2022-08-20T21:01:48.369Z,101059.22
2022-08-20T21:04:17.869Z,101065.03
2022-08-20T21:06:45.984Z,101060.63
2022-08-20T21:09:14.042Z,101065.31
2022-08-20T21:11:41.702Z,101066.41
2022-08-20T21:14:12.293Z,101068.34
2022-08-20T21:16:40.257Z,101067.22
2022-08-20T21:19:09.835Z,101074.94
2022-08-20T21:21:38.748Z,101074.66
2022-08-20T21:24:07.509Z,101069.97
2022-08-20T21:26:35.793Z,101076.34
2022-08-20T21:29:04.926Z,101068.84
2022-08-20T21:31:37.426Z,101086.22
2022-08-20T21:34:07.397Z,101082.59
2022-08-20T21:36:37.437Z,101087.50
2022-08-20T21:39:05.531Z,101090.00
2022-08-20T21:41:33.783Z,101088.28
2022-08-20T21:44:07.611Z,101095.69
2022-08-20T21:46:37.486Z,101098.97
2022-08-20T21:49:05.222Z,101092.03
2022-08-20T21:51:33.183Z,101088.75
2022-08-20T21:54:00.858Z,101084.91
2022-08-20T21:56:28.910Z,101089.56
2022-08-20T21:59:03.924Z,101089.28
2022-08-20T22:01:32.544Z,101085.72
2022-08-20T22:04:01.646Z,101087.63
2022-08-20T22:06:31.252Z,101087.59
2022-08-20T22:08:58.969Z,101082.84
2022-08-20T22:11:26.723Z,101082.03
2022-08-20T22:13:54.496Z,101078.97
2022-08-20T22:16:23.035Z,101084.22
2022-08-20T22:18:51.705Z,101083.09
2022-08-20T22:21:24.200Z,101075.91
2022-08-20T22:23:52.286Z,101083.91
2022-08-20T22:26:20.862Z,101076.44
2022-08-20T22:28:51.142Z,101077.50
2022-08-20T22:31:22.089Z,101071.69
2022-08-20T22:33:52.182Z,101069.22
2022-08-20T22:36:24.011Z,101070.03
2022-08-20T22:38:54.606Z,101069.75
2022-08-20T22:41:24.172Z,101068.38
2022-08-20T22:43:56.427Z,101066.94
2022-08-20T22:46:27.089Z,101065.81
2022-08-20T22:48:55.256Z,101068.81
2022-08-20T22:51:28.918Z,101070.72
2022-08-20T22:53:58.588Z,101070.94
2022-08-20T22:56:27.138Z,101076.13
2022-08-20T22:58:59.011Z,101072.75
2022-08-20T23:01:28.023Z,101071.91
2022-08-20T23:03:56.390Z,101066.66
2022-08-20T23:06:27.787Z,101066.06
2022-08-20T23:08:55.424Z,101062.50
2022-08-20T23:11:23.078Z,101067.75
2022-08-20T23:13:50.741Z,101059.75
2022-08-20T23:16:18.414Z,101058.94
2022-08-20T23:18:47.092Z,101053.38
2022-08-20T23:21:14.778Z,101064.91
2022-08-20T23:23:46.093Z,101062.09
2022-08-20T23:26:20.014Z,101061.28
2022-08-20T23:28:47.710Z,101058.41
2022-08-20T23:31:15.972Z,101046.53
2022-08-20T23:33:44.918Z,101052.56
2022-08-20T23:36:13.461Z,101050.91
2022-08-20T23:38:41.236Z,101051.66
2022-08-20T23:41:10.462Z,101059.09
2022-08-20T23:43:38.139Z,101049.16
2022-08-20T23:46:07.563Z,101051.09
2022-08-20T23:48:36.107Z,101051.66
2022-08-20T23:51:03.724Z,101046.41
2022-08-20T23:53:31.398Z,101044.25
2022-08-20T23:55:59.109Z,101037.34
2022-08-20T23:58:28.018Z,101037.03
